createdAt,value
2023-04-21T00:02:21.857Z,92.40
2023-04-21T00:13:18.250Z,92.00
2023-04-21T00:24:16.372Z,92.00
2023-04-21T00:29:44.409Z,92.00
2023-04-21T00:35:13.455Z,92.30
2023-04-21T00:40:41.568Z,92.30
2023-04-21T00:46:09.498Z,92.30
2023-04-21T00:51:40.883Z,92.30
2023-04-21T00:57:09.696Z,92.00
2023-04-21T01:02:39.956Z,92.10
2023-04-21T01:08:09.156Z,92.10
2023-04-21T01:13:37.415Z,92.30
2023-04-21T01:19:06.138Z,92.40
2023-04-21T01:24:41.431Z,92.10
2023-04-21T01:30:12.540Z,92.10
2023-04-21T01:35:41.607Z,92.10
2023-04-21T01:41:11.132Z,92.10
2023-04-21T01:46:39.110Z,92.40
2023-04-21T01:52:06.996Z,92.10
2023-04-21T01:57:34.949Z,92.40
2023-04-21T02:03:03.038Z,92.40
2023-04-21T02:08:31.127Z,92.40
2023-04-21T02:13:59.064Z,92.20
2023-04-21T02:19:27.024Z,92.40
2023-04-21T02:24:56.305Z,92.50
2023-04-21T02:30:25.135Z,92.60
2023-04-21T02:35:52.891Z,92.50
2023-04-21T02:41:20.799Z,92.60
2023-04-21T02:46:48.799Z,92.50
2023-04-21T02:57:45.006Z,92.20
2023-04-21T03:03:13.007Z,92.60
2023-04-21T03:08:41.077Z,92.60
2023-04-21T03:14:09.032Z,92.30
2023-04-21T03:19:36.969Z,92.60
2023-04-21T03:25:06.656Z,92.60
2023-04-21T03:30:39.976Z,92.40
2023-04-21T03:36:08.805Z,92.30
2023-04-21T03:41:37.144Z,92.70
2023-04-21T03:47:05.367Z,92.40
2023-04-21T03:52:33.786Z,92.70
2023-04-21T03:58:02.938Z,92.60
2023-04-21T04:03:31.256Z,92.70
2023-04-21T04:08:59.315Z,92.70
2023-04-21T04:14:27.356Z,92.40
2023-04-21T04:19:55.394Z,92.80
2023-04-21T04:25:24.653Z,92.70
2023-04-21T04:30:53.253Z,92.80
2023-04-21T04:41:49.540Z,92.40
2023-04-21T04:52:47.156Z,92.50
2023-04-21T04:58:15.258Z,92.70
2023-04-21T05:09:12.558Z,92.50
2023-04-21T05:14:40.306Z,92.40
2023-04-21T05:20:09.535Z,92.70
2023-04-21T05:25:38.717Z,92.40
2023-04-21T05:31:06.552Z,92.70
2023-04-21T05:36:34.368Z,92.40
2023-04-21T05:42:04.104Z,92.70
2023-04-21T05:47:31.997Z,92.40
2023-04-21T05:52:59.890Z,92.70
2023-04-21T05:58:27.620Z,92.70
2023-04-21T06:03:55.818Z,92.90
2023-04-21T06:09:24.014Z,92.30
2023-04-21T06:14:51.891Z,92.60
2023-04-21T06:20:19.771Z,92.50
2023-04-21T06:25:48.064Z,92.50
2023-04-21T06:31:16.121Z,91.50
2023-04-21T06:36:44.109Z,92.50
2023-04-21T06:42:12.050Z,92.40
2023-04-21T06:53:14.905Z,91.50
2023-04-21T06:58:42.781Z,91.70
2023-04-21T07:04:10.755Z,91.60
2023-04-21T07:09:38.596Z,91.60
2023-04-21T07:15:07.581Z,91.60
2023-04-21T07:20:35.705Z,91.30
2023-04-21T07:37:00.286Z,90.80
2023-04-21T07:42:28.172Z,91.00
2023-04-21T07:58:52.173Z,90.30
2023-04-21T08:04:20.503Z,90.10
2023-04-21T08:09:48.584Z,90.30
2023-04-21T08:31:41.363Z,89.10
2023-04-21T08:42:39.741Z,89.10
2023-04-21T08:48:09.752Z,89.40
2023-04-21T08:53:38.369Z,88.90
2023-04-21T09:04:34.650Z,87.20
2023-04-21T09:10:03.537Z,87.40
2023-04-21T09:15:45.545Z,87.80
2023-04-21T09:21:18.091Z,86.80
2023-04-21T09:26:53.724Z,87.30
2023-04-21T09:32:21.705Z,86.90
2023-04-21T09:37:49.647Z,86.60
2023-04-21T09:43:17.496Z,86.80
2023-04-21T09:48:48.205Z,86.50
2023-04-21T10:00:05.431Z,86.70
2023-04-21T10:05:34.341Z,86.30
2023-04-21T10:11:05.863Z,86.60
2023-04-21T10:16:38.240Z,86.20
2023-04-21T10:22:10.499Z,86.70
2023-04-21T10:27:43.282Z,86.10
2023-04-21T10:33:11.513Z,85.00
2023-04-21T10:38:44.198Z,85.50
2023-04-21T10:44:14.323Z,85.00
2023-04-21T10:49:42.220Z,85.50
2023-04-21T10:55:12.649Z,85.60
2023-04-21T11:00:40.807Z,85.50
2023-04-21T11:06:18.710Z,85.90
2023-04-21T11:11:58.531Z,84.50
2023-04-21T11:17:26.678Z,84.50
2023-04-21T11:22:57.471Z,84.90
2023-04-21T11:28:25.433Z,84.60
2023-04-21T11:39:23.926Z,84.00
2023-04-21T11:44:56.618Z,83.60
2023-04-21T11:50:37.137Z,81.10
2023-04-21T11:56:06.387Z,81.70
2023-04-21T12:07:04.638Z,78.80
2023-04-21T12:18:13.715Z,77.80
2023-04-21T12:45:44.470Z,75.30
2023-04-21T12:56:55.140Z,73.90
2023-04-21T13:07:51.716Z,73.60
2023-04-21T13:13:20.832Z,72.70
2023-04-21T13:18:48.737Z,72.90
2023-04-21T13:24:16.511Z,72.40
2023-04-21T13:29:47.710Z,72.80
2023-04-21T13:35:15.583Z,72.50
2023-04-21T13:40:43.661Z,70.90
2023-04-21T13:46:14.576Z,71.80
2023-04-21T13:51:45.486Z,72.20
2023-04-21T13:57:13.790Z,69.20
2023-04-21T14:02:44.729Z,71.60
2023-04-21T14:08:12.968Z,70.90
2023-04-21T14:13:56.032Z,69.80
2023-04-21T14:19:32.780Z,70.80
2023-04-21T14:25:10.445Z,70.90
2023-04-21T14:30:55.490Z,65.00
2023-04-21T14:37:16.235Z,53.70
2023-04-21T14:43:04.098Z,47.30
2023-04-21T14:48:33.283Z,40.50
2023-04-21T14:54:18.074Z,41.40
2023-04-21T14:59:46.852Z,41.10
2023-04-21T15:05:15.262Z,40.40
2023-04-21T15:10:43.126Z,43.70
2023-04-21T15:16:11.187Z,44.50
2023-04-21T15:21:39.443Z,43.30
2023-04-21T15:27:07.219Z,45.00
2023-04-21T15:32:35.121Z,46.10
2023-04-21T15:38:03.351Z,47.20
2023-04-21T15:43:31.313Z,48.10
2023-04-21T15:48:59.256Z,48.90
2023-04-21T15:54:27.740Z,50.20
2023-04-21T15:59:55.982Z,50.00
2023-04-21T16:05:27.575Z,50.90
2023-04-21T16:10:58.025Z,51.20
2023-04-21T16:16:27.208Z,51.10
2023-04-21T16:21:56.569Z,51.20
2023-04-21T16:27:26.905Z,51.70
2023-04-21T16:32:54.926Z,51.50
2023-04-21T16:38:27.067Z,52.10
2023-04-21T16:43:55.179Z,52.00
2023-04-21T16:49:23.254Z,52.50
2023-04-21T16:54:52.320Z,52.20
2023-04-21T17:00:20.851Z,52.70
2023-04-21T17:05:49.123Z,53.20
2023-04-21T17:11:17.051Z,53.70
2023-04-21T17:16:46.079Z,53.70
2023-04-21T17:22:14.142Z,53.80
2023-04-21T17:27:42.464Z,53.80
2023-04-21T17:33:17.034Z,54.30
2023-04-21T17:38:46.202Z,54.30
2023-04-21T17:44:14.356Z,54.50
2023-04-21T17:49:42.389Z,55.30
2023-04-21T17:55:10.614Z,55.50
2023-04-21T18:00:38.583Z,55.60
2023-04-21T18:06:07.450Z,55.30
2023-04-21T18:11:35.881Z,55.90
2023-04-21T18:17:03.859Z,55.70
2023-04-21T18:22:33.187Z,56.10
2023-04-21T18:28:01.317Z,57.30
2023-04-21T18:33:29.477Z,56.80
2023-04-21T18:38:57.685Z,57.80
2023-04-21T18:44:26.354Z,57.00
2023-04-21T18:50:01.460Z,57.30
2023-04-21T18:55:30.636Z,57.20
2023-04-21T19:00:58.458Z,57.50
2023-04-21T19:06:27.982Z,57.80
2023-04-21T19:11:56.036Z,58.10
2023-04-21T19:17:24.130Z,58.70
2023-04-21T19:22:53.279Z,59.50
2023-04-21T19:28:21.698Z,58.50
2023-04-21T19:33:52.375Z,59.40
2023-04-21T19:39:20.358Z,59.60
2023-04-21T19:44:48.209Z,59.30
2023-04-21T19:50:16.319Z,59.60
2023-04-21T19:55:44.494Z,59.90
2023-04-21T20:01:12.941Z,60.40
2023-04-21T20:06:42.570Z,59.50
2023-04-21T20:12:10.520Z,59.90
2023-04-21T20:23:06.950Z,59.20
2023-04-21T20:28:34.886Z,59.30
2023-04-21T20:39:30.950Z,59.40
2023-04-21T20:45:02.361Z,60.10
2023-04-21T20:50:30.453Z,59.50
2023-04-21T20:55:58.445Z,60.10
2023-04-21T21:01:28.042Z,60.10
2023-04-21T21:06:58.642Z,60.10
2023-04-21T21:12:26.532Z,59.70
2023-04-21T21:18:06.740Z,59.80
2023-04-21T21:29:03.453Z,59.80
2023-04-21T21:34:31.405Z,60.10
2023-04-21T21:40:00.550Z,60.10
2023-04-21T21:45:28.702Z,60.40
2023-04-21T21:50:56.551Z,61.10
2023-04-21T21:56:25.950Z,60.60
2023-04-21T22:01:53.896Z,60.90
2023-04-21T22:07:25.214Z,61.80
2023-04-21T22:12:56.106Z,61.20
2023-04-21T22:18:24.940Z,62.10
2023-04-21T22:23:53.154Z,61.60
2023-04-21T22:29:24.168Z,62.20
2023-04-21T22:34:52.065Z,62.10
2023-04-21T22:40:19.998Z,62.80
2023-04-21T22:45:47.960Z,63.10
2023-04-21T22:56:46.189Z,62.80
2023-04-21T23:07:42.277Z,63.20
2023-04-21T23:13:10.135Z,63.30
2023-04-21T23:18:37.943Z,63.70
2023-04-21T23:24:06.126Z,63.70
2023-04-21T23:29:34.054Z,64.50
2023-04-21T23:35:02.047Z,64.20
2023-04-21T23:40:29.937Z,65.10
2023-04-21T23:51:27.140Z,64.70
